createdAt,value
2024-03-02T00:02:34.765Z,100640.78
2024-03-02T00:07:36.749Z,100630.53
2024-03-02T00:12:41.976Z,100628.78
2024-03-02T00:17:44.090Z,100623.41
2024-03-02T00:22:48.051Z,100619.72
2024-03-02T00:27:51.666Z,100622.31
2024-03-02T00:32:53.847Z,100619.72
2024-03-02T00:37:56.269Z,100623.34
2024-03-02T00:42:58.404Z,100624.13
2024-03-02T00:48:00.397Z,100625.81
2024-03-02T00:53:03.271Z,100625.75
2024-03-02T00:58:05.351Z,100634.50
2024-03-02T01:03:07.419Z,100631.84
2024-03-02T01:08:10.228Z,100644.91
2024-03-02T01:13:12.278Z,100647.28
2024-03-02T01:18:14.356Z,100652.31
2024-03-02T01:23:16.406Z,100653.84
2024-03-02T01:28:18.663Z,100650.44
2024-03-02T01:33:21.174Z,100644.44
2024-03-02T01:38:23.421Z,100646.41
2024-03-02T01:43:25.452Z,100638.53
2024-03-02T01:48:27.576Z,100649.88
2024-03-02T01:53:29.908Z,100643.03
2024-03-02T01:58:31.981Z,100641.50
2024-03-02T02:03:34.019Z,100635.53
2024-03-02T02:08:36.107Z,100638.13
2024-03-02T02:13:38.112Z,100644.03
2024-03-02T02:18:40.178Z,100641.53
2024-03-02T02:23:42.170Z,100641.63
2024-03-02T02:28:44.164Z,100649.31
2024-03-02T02:33:46.186Z,100659.84
2024-03-02T02:38:48.344Z,100670.16
2024-03-02T02:43:50.316Z,100668.19
2024-03-02T02:48:52.463Z,100666.44
2024-03-02T02:53:54.596Z,100653.59
2024-03-02T02:58:56.665Z,100661.13
2024-03-02T03:03:58.701Z,100655.84
2024-03-02T03:09:00.798Z,100664.56
2024-03-02T03:14:02.844Z,100668.03
2024-03-02T03:19:04.990Z,100674.88
2024-03-02T03:24:07.060Z,100666.97
2024-03-02T03:29:09.132Z,100665.31
2024-03-02T03:34:11.333Z,100655.78
2024-03-02T03:39:13.348Z,100658.31
2024-03-02T03:44:15.439Z,100654.63
2024-03-02T03:49:17.446Z,100651.03
2024-03-02T03:54:19.602Z,100658.81
2024-03-02T03:59:21.621Z,100655.53
2024-03-02T04:04:23.646Z,100653.75
2024-03-02T04:09:25.729Z,100645.97
2024-03-02T04:14:27.725Z,100659.00
2024-03-02T04:19:29.784Z,100658.13
2024-03-02T04:24:32.001Z,100668.41
2024-03-02T04:29:34.077Z,100657.25
2024-03-02T04:34:36.128Z,100655.41
2024-03-02T04:39:38.268Z,100662.44
2024-03-02T04:44:40.440Z,100666.69
2024-03-02T04:49:42.528Z,100663.72
2024-03-02T04:54:44.930Z,100667.34
2024-03-02T04:59:47.016Z,100669.69
2024-03-02T05:04:49.117Z,100665.47
2024-03-02T05:09:51.200Z,100661.25
2024-03-02T05:14:53.249Z,100667.97
2024-03-02T05:19:55.337Z,100652.38
2024-03-02T05:24:57.418Z,100656.19
2024-03-02T05:29:59.772Z,100657.06
2024-03-02T05:35:01.751Z,100667.56
2024-03-02T05:40:04.228Z,100655.63
2024-03-02T05:45:06.449Z,100669.38
2024-03-02T05:50:08.862Z,100670.38
2024-03-02T05:55:10.918Z,100672.28
2024-03-02T06:00:13.336Z,100677.34
2024-03-02T06:05:15.804Z,100688.38
2024-03-02T06:10:17.946Z,100684.88
2024-03-02T06:15:20.323Z,100684.00
2024-03-02T06:20:22.335Z,100684.06
2024-03-02T06:25:24.316Z,100675.69
2024-03-02T06:30:26.327Z,100682.09
2024-03-02T06:35:28.362Z,100683.91
2024-03-02T06:40:30.301Z,100683.72
2024-03-02T06:45:32.394Z,100678.53
2024-03-02T06:50:34.558Z,100683.94
2024-03-02T06:55:36.546Z,100683.31
2024-03-02T07:00:38.660Z,100682.38
2024-03-02T07:05:40.851Z,100687.53
2024-03-02T07:10:42.970Z,100680.88
2024-03-02T07:15:45.083Z,100686.09
2024-03-02T07:20:47.107Z,100692.41
2024-03-02T07:31:06.561Z,100687.69
2024-03-02T07:36:08.693Z,100692.91
2024-03-02T07:41:10.826Z,100683.41
2024-03-02T07:46:12.928Z,100675.28
2024-03-02T07:51:15.119Z,100670.16
2024-03-02T07:56:17.134Z,100673.88
2024-03-02T08:01:19.274Z,100674.97
2024-03-02T08:06:21.357Z,100668.97
2024-03-02T08:11:23.556Z,100666.31
2024-03-02T08:16:25.564Z,100663.19
2024-03-02T08:21:27.668Z,100666.78
2024-03-02T08:26:29.619Z,100668.75
2024-03-02T08:31:31.960Z,100671.50
2024-03-02T08:36:34.144Z,100670.34
2024-03-02T08:41:36.242Z,100665.78
2024-03-02T08:46:38.239Z,100670.16
2024-03-02T08:51:40.289Z,100672.34
2024-03-02T08:56:42.559Z,100668.81
2024-03-02T09:01:44.674Z,100666.44
2024-03-02T09:06:46.694Z,100662.19
2024-03-02T09:11:48.660Z,100652.88
2024-03-02T09:16:50.809Z,100658.75
2024-03-02T09:21:52.893Z,100659.66
2024-03-02T09:26:54.988Z,100659.38
2024-03-02T09:31:57.059Z,100663.75
2024-03-02T09:36:59.433Z,100652.66
2024-03-02T09:42:01.520Z,100647.78
2024-03-02T09:47:03.623Z,100635.94
2024-03-02T09:52:05.811Z,100637.75
2024-03-02T09:57:08.235Z,100635.31
2024-03-02T10:02:10.285Z,100639.63
2024-03-02T10:07:13.855Z,100636.19
2024-03-02T10:12:17.296Z,100634.22
2024-03-02T10:17:19.517Z,100637.69
2024-03-02T10:22:21.424Z,100641.22
2024-03-02T10:27:28.673Z,100646.31
2024-03-02T10:32:30.945Z,100649.97
2024-03-02T10:37:33.297Z,100660.13
2024-03-02T10:42:35.634Z,100659.38
2024-03-02T10:47:38.545Z,100663.94
2024-03-02T10:52:40.676Z,100658.75
2024-03-02T10:57:53.480Z,100660.41
2024-03-02T11:02:59.418Z,100656.84
2024-03-02T11:08:07.923Z,100655.94
2024-03-02T11:13:21.012Z,100656.00
2024-03-02T11:18:23.143Z,100650.03
2024-03-02T11:23:34.451Z,100644.63
2024-03-02T11:28:37.056Z,100648.19
2024-03-02T11:33:40.235Z,100650.44
2024-03-02T11:38:42.369Z,100652.75
2024-03-02T11:43:44.371Z,100639.91
2024-03-02T11:48:46.549Z,100628.78
2024-03-02T11:53:48.725Z,100626.13
2024-03-02T11:58:53.737Z,100646.03
2024-03-02T12:03:56.163Z,100634.59
2024-03-02T12:08:58.271Z,100630.16
2024-03-02T12:14:00.256Z,100640.59
2024-03-02T12:19:02.261Z,100637.03
2024-03-02T12:24:04.391Z,100632.25
2024-03-02T12:29:06.739Z,100640.94
2024-03-02T12:34:09.051Z,100634.72
2024-03-02T12:39:11.027Z,100641.97
2024-03-02T12:44:13.091Z,100635.66
2024-03-02T12:49:16.159Z,100634.94
2024-03-02T12:54:18.367Z,100638.75
2024-03-02T12:59:24.815Z,100652.84
2024-03-02T13:04:27.285Z,100644.16
2024-03-02T13:09:29.370Z,100648.13
2024-03-02T13:14:34.330Z,100651.03
2024-03-02T13:19:36.693Z,100660.50
2024-03-02T13:24:38.631Z,100665.38
2024-03-02T13:29:40.728Z,100662.75
2024-03-02T13:34:43.116Z,100661.63
2024-03-02T13:39:45.092Z,100661.50
2024-03-02T13:44:47.457Z,100673.63
2024-03-02T13:49:49.964Z,100659.63
2024-03-02T13:54:52.180Z,100660.56
2024-03-02T13:59:54.358Z,100666.75
2024-03-02T14:04:56.471Z,100680.44
2024-03-02T14:09:58.436Z,100663.84
2024-03-02T14:15:00.408Z,100669.53
2024-03-02T14:20:02.471Z,100670.34
2024-03-02T14:25:06.952Z,100684.69
2024-03-02T14:30:09.817Z,100671.75
2024-03-02T14:35:11.897Z,100680.28
2024-03-02T14:40:14.015Z,100674.91
2024-03-02T14:45:16.035Z,100670.44
2024-03-02T14:50:18.114Z,100666.91
2024-03-02T14:55:20.177Z,100674.84
2024-03-02T15:00:23.516Z,100681.88
2024-03-02T15:05:25.739Z,100679.91
2024-03-02T15:10:27.703Z,100675.63
2024-03-02T15:15:29.653Z,100678.97
2024-03-02T15:20:31.634Z,100675.59
2024-03-02T15:25:33.794Z,100678.22
2024-03-02T15:30:35.892Z,100679.06
2024-03-02T15:35:38.024Z,100679.06
2024-03-02T15:40:58.567Z,100682.38
2024-03-02T15:46:00.719Z,100689.19
2024-03-02T15:51:05.745Z,100683.06
2024-03-02T15:56:09.997Z,100679.41
2024-03-02T16:01:12.277Z,100684.72
2024-03-02T16:06:14.394Z,100678.53
2024-03-02T16:11:16.565Z,100687.06
2024-03-02T16:16:18.756Z,100686.44
2024-03-02T16:21:21.516Z,100687.16
2024-03-02T16:26:24.223Z,100693.19
2024-03-02T16:31:26.195Z,100690.59
2024-03-02T16:36:28.227Z,100691.50
2024-03-02T16:41:30.247Z,100697.44
2024-03-02T16:46:32.161Z,100713.06
2024-03-02T16:51:43.752Z,100706.94
2024-03-02T16:56:45.924Z,100711.25
2024-03-02T17:01:48.016Z,100697.47
2024-03-02T17:06:50.268Z,100708.63
2024-03-02T17:11:52.412Z,100705.84
2024-03-02T17:16:54.497Z,100711.03
2024-03-02T17:21:56.520Z,100703.84
2024-03-02T17:26:58.605Z,100707.34
2024-03-02T17:32:00.701Z,100713.31
2024-03-02T17:37:02.893Z,100704.88
2024-03-02T17:42:05.296Z,100703.94
2024-03-02T17:47:07.533Z,100706.44
2024-03-02T17:52:10.925Z,100707.28
2024-03-02T17:57:12.951Z,100713.28
2024-03-02T18:02:14.974Z,100712.16
2024-03-02T18:07:17.132Z,100713.44
2024-03-02T18:12:19.168Z,100712.56
2024-03-02T18:17:21.128Z,100709.69
2024-03-02T18:22:23.184Z,100715.31
2024-03-02T18:27:25.175Z,100719.69
2024-03-02T18:32:27.097Z,100720.25
2024-03-02T18:37:29.036Z,100716.69
2024-03-02T18:42:49.481Z,100719.03
2024-03-02T18:47:51.479Z,100716.25
2024-03-02T18:52:53.441Z,100729.03
2024-03-02T18:57:55.550Z,100723.72
2024-03-02T19:02:57.505Z,100733.72
2024-03-02T19:07:59.449Z,100730.03
2024-03-02T19:13:01.581Z,100728.28
2024-03-02T19:18:03.858Z,100732.38
2024-03-02T19:23:05.988Z,100732.38
2024-03-02T19:28:08.049Z,100734.06
2024-03-02T19:33:10.151Z,100726.16
2024-03-02T19:38:12.204Z,100733.03
2024-03-02T19:43:14.205Z,100733.03
2024-03-02T19:48:34.905Z,100736.38
2024-03-02T19:53:36.930Z,100739.78
2024-03-02T19:58:38.961Z,100738.06
2024-03-02T20:03:41.093Z,100733.59
2024-03-02T20:08:43.095Z,100741.31
2024-03-02T20:13:45.133Z,100737.59
2024-03-02T20:18:47.181Z,100740.84
2024-03-02T20:23:49.475Z,100747.31
2024-03-02T20:29:10.152Z,100749.00
2024-03-02T20:34:12.340Z,100752.41
2024-03-02T20:39:14.579Z,100758.28
2024-03-02T20:44:17.186Z,100754.88
2024-03-02T20:49:19.554Z,100755.66
2024-03-02T20:54:21.658Z,100746.91
2024-03-02T20:59:23.638Z,100762.28
2024-03-02T21:04:25.623Z,100756.81
2024-03-02T21:09:27.745Z,100758.47
2024-03-02T21:14:29.895Z,100755.63
2024-03-02T21:19:31.918Z,100765.06
2024-03-02T21:24:34.401Z,100754.56
2024-03-02T21:29:36.733Z,100760.44
2024-03-02T21:34:38.938Z,100771.50
2024-03-02T21:39:46.918Z,100755.97
2024-03-02T21:44:49.659Z,100758.41
2024-03-02T21:49:51.700Z,100766.00
2024-03-02T21:54:53.892Z,100757.41
2024-03-02T21:59:56.667Z,100770.25
2024-03-02T22:04:58.673Z,100771.91
2024-03-02T22:10:00.758Z,100770.97
2024-03-02T22:15:02.937Z,100770.97
2024-03-02T22:20:06.687Z,100777.09
2024-03-02T22:25:08.758Z,100780.22
2024-03-02T22:30:11.322Z,100779.44
2024-03-02T22:35:13.108Z,100785.22
2024-03-02T22:40:15.441Z,100787.97
2024-03-02T22:45:18.133Z,100780.81
2024-03-02T22:50:20.262Z,100767.09
2024-03-02T22:55:22.395Z,100773.09
2024-03-02T23:00:24.507Z,100767.03
2024-03-02T23:05:26.531Z,100773.97
2024-03-02T23:10:28.793Z,100772.91
2024-03-02T23:15:31.718Z,100790.72
2024-03-02T23:20:33.969Z,100785.38
2024-03-02T23:25:36.127Z,100785.22
2024-03-02T23:30:38.300Z,100796.34
2024-03-02T23:35:40.535Z,100789.38
2024-03-02T23:40:42.742Z,100800.44
2024-03-02T23:45:44.880Z,100805.56
2024-03-02T23:50:47.036Z,100807.13
2024-03-02T23:55:52.691Z,100811.38
